Time;durP1;ratioP1;P1;durP2;ratioP2;P2;SDS_P1;SDS_P2;PMS_P1;PMS_P2;Temp;Humidity;BMP_temperature;BMP_pressure;BME280_temperature;BME280_humidity;BME280_pressure;Samples;Min_cycle;Max_cycle;Signal;HPM_P1;HPM_P2
2022/08/06 00:00:43;;;;;;;6.27;1.60;;;16.50;99.90;;;;;;5115372;28;20268;-47
2022/08/06 00:03:14;;;;;;;1.43;1.33;;;16.40;99.90;;;;;;5111493;28;20190;-47
2022/08/06 00:05:44;;;;;;;3.80;1.07;;;16.40;99.90;;;;;;5114179;28;20640;-49
2022/08/06 00:08:16;;;;;;;1.00;0.90;;;16.40;99.90;;;;;;5112798;28;20211;-48
2022/08/06 00:10:46;;;;;;;0.70;0.70;;;16.40;99.90;;;;;;5114365;28;20178;-47
2022/08/06 00:13:18;;;;;;;1.53;1.03;;;16.30;99.90;;;;;;5109002;28;20450;-48
2022/08/06 00:15:49;;;;;;;0.70;0.70;;;16.30;99.90;;;;;;5112348;28;20189;-47
2022/08/06 00:18:20;;;;;;;1.13;1.13;;;16.20;99.90;;;;;;5118018;28;20454;-48
2022/08/06 00:20:50;;;;;;;4.07;1.20;;;16.20;99.90;;;;;;5117870;28;20281;-48
2022/08/06 00:23:21;;;;;;;0.97;0.90;;;16.20;99.90;;;;;;5117675;28;20182;-47
2022/08/06 00:25:52;;;;;;;3.73;1.03;;;16.20;99.90;;;;;;5116078;28;20304;-47
2022/08/06 00:28:24;;;;;;;1.43;1.10;;;16.20;99.90;;;;;;5112746;28;20221;-47
2022/08/06 00:30:55;;;;;;;1.33;1.33;;;16.10;99.90;;;;;;5116156;28;20442;-47
2022/08/06 00:33:26;;;;;;;0.93;0.93;;;16.10;99.90;;;;;;5114434;28;20438;-47
2022/08/06 00:35:56;;;;;;;0.90;0.90;;;16.00;99.90;;;;;;5118866;28;20218;-48
2022/08/06 00:38:27;;;;;;;1.13;1.10;;;16.00;99.90;;;;;;5115784;28;20205;-47
2022/08/06 00:40:58;;;;;;;0.60;0.60;;;15.90;99.90;;;;;;5112421;28;20273;-46
2022/08/06 00:43:29;;;;;;;1.07;1.07;;;15.90;99.90;;;;;;5122437;28;20268;-47
2022/08/06 00:45:59;;;;;;;1.10;1.10;;;15.90;99.90;;;;;;5114308;28;20182;-47
2022/08/06 00:48:30;;;;;;;2.50;0.93;;;15.80;99.90;;;;;;5111468;28;20198;-47
2022/08/06 00:51:01;;;;;;;2.70;1.13;;;15.80;99.90;;;;;;5114448;28;20233;-48
2022/08/06 00:53:31;;;;;;;3.63;1.30;;;15.90;99.90;;;;;;5114169;28;20183;-47
2022/08/06 00:56:03;;;;;;;1.90;0.90;;;15.80;99.90;;;;;;5117072;28;20189;-48
2022/08/06 00:58:34;;;;;;;1.50;1.00;;;15.70;99.90;;;;;;5109759;28;20581;-47
2022/08/06 01:01:05;;;;;;;0.73;0.73;;;15.70;99.90;;;;;;5113560;28;20451;-49
2022/08/06 01:03:36;;;;;;;0.50;0.50;;;15.70;99.90;;;;;;5117598;28;20281;-47
2022/08/06 01:06:06;;;;;;;1.60;0.83;;;15.50;99.90;;;;;;5111208;28;20274;-47
2022/08/06 01:08:37;;;;;;;0.80;0.80;;;15.60;99.90;;;;;;5109155;28;20267;-48
2022/08/06 01:11:08;;;;;;;0.50;0.50;;;15.60;99.90;;;;;;5115305;28;20182;-48
2022/08/06 01:13:39;;;;;;;0.77;0.77;;;15.50;99.90;;;;;;5115207;28;20197;-48
2022/08/06 01:16:28;;;;;;;1.20;0.80;;;15.40;99.90;;;;;;5108959;28;20484;-47
2022/08/06 01:19:26;;;;;;;0.73;0.73;;;15.40;99.90;;;;;;5106779;28;20482;-48
2022/08/06 01:22:22;;;;;;;2.17;0.63;;;15.40;99.90;;;;;;5118347;28;20520;-47
2022/08/06 01:25:05;;;;;;;1.50;0.77;;;15.30;99.90;;;;;;5116608;28;20446;-47
2022/08/06 01:27:42;;;;;;;1.73;0.73;;;15.30;99.90;;;;;;5113562;28;20449;-47
2022/08/06 01:30:16;;;;;;;2.00;0.90;;;15.40;99.90;;;;;;5112645;28;20467;-48
2022/08/06 01:32:53;;;;;;;1.53;0.80;;;15.30;99.90;;;;;;5111991;28;20501;-47
2022/08/06 01:35:30;;;;;;;2.20;0.90;;;15.20;99.90;;;;;;5115407;28;20453;-47
2022/08/06 01:38:07;;;;;;;1.33;0.80;;;15.20;99.90;;;;;;5117480;28;20461;-47
2022/08/06 01:40:44;;;;;;;0.70;0.70;;;15.20;99.90;;;;;;5104684;28;20469;-47
2022/08/06 01:43:17;;;;;;;0.93;0.70;;;15.20;99.90;;;;;;5109403;28;20445;-48
2022/08/06 01:45:51;;;;;;;0.70;0.70;;;15.10;99.90;;;;;;5109273;28;21006;-48
2022/08/06 01:48:25;;;;;;;1.10;1.00;;;15.10;99.90;;;;;;5113844;29;20498;-46
2022/08/06 01:50:59;;;;;;;0.60;0.53;;;15.10;99.90;;;;;;5112090;28;20472;-47
2022/08/06 01:53:34;;;;;;;1.60;0.70;;;15.10;99.90;;;;;;5118598;28;20488;-47
2022/08/06 01:56:07;;;;;;;0.87;0.87;;;15.10;99.90;;;;;;5116253;29;20433;-47
2022/08/06 01:58:42;;;;;;;2.77;1.00;;;15.00;99.90;;;;;;5110810;28;20501;-46
2022/08/06 02:01:13;;;;;;;2.53;0.90;;;15.00;99.90;;;;;;5111732;28;20811;-49
2022/08/06 02:03:47;;;;;;;0.67;0.50;;;14.90;99.90;;;;;;5116833;28;20529;-46
2022/08/06 02:06:22;;;;;;;3.90;1.13;;;14.90;99.90;;;;;;5116415;28;20460;-45
2022/08/06 02:08:53;;;;;;;1.10;0.90;;;14.80;99.90;;;;;;5117098;28;20461;-45
2022/08/06 02:11:24;;;;;;;0.63;0.63;;;14.80;99.90;;;;;;5101811;28;20455;-45
2022/08/06 02:13:57;;;;;;;0.90;0.90;;;14.80;99.90;;;;;;5109772;28;20476;-47
2022/08/06 02:16:34;;;;;;;0.70;0.70;;;14.70;99.90;;;;;;5196308;28;20190;-46
2022/08/06 02:19:07;;;;;;;0.50;0.50;;;14.70;99.90;;;;;;5119070;28;20479;-44
2022/08/06 02:21:40;;;;;;;3.50;1.10;;;14.70;99.90;;;;;;5112806;28;20438;-47
2022/08/06 02:24:12;;;;;;;2.90;1.10;;;14.60;99.90;;;;;;5113185;28;20496;-45
2022/08/06 02:26:44;;;;;;;0.63;0.63;;;14.70;99.90;;;;;;5116014;28;20438;-45
2022/08/06 02:29:17;;;;;;;0.50;0.50;;;14.70;99.90;;;;;;5117488;28;20466;-47
2022/08/06 02:31:48;;;;;;;0.70;0.70;;;14.60;99.90;;;;;;5121034;28;20449;-45
2022/08/06 02:34:20;;;;;;;0.80;0.80;;;14.60;99.90;;;;;;5122848;28;20427;-46
2022/08/06 02:37:18;;;;;;;0.77;0.77;;;14.40;99.90;;;;;;5115774;28;20329;-44
2022/08/06 02:39:55;;;;;;;1.50;1.40;;;14.30;99.90;;;;;;5121345;29;20500;-45
2022/08/06 02:42:28;;;;;;;2.30;0.60;;;14.40;99.90;;;;;;5113695;28;20497;-46
2022/08/06 02:45:08;;;;;;;0.77;0.77;;;14.30;99.90;;;;;;5121813;28;20452;-46
2022/08/06 02:47:46;;;;;;;1.80;0.80;;;14.20;99.90;;;;;;5114935;28;20485;-45
2022/08/06 02:50:21;;;;;;;0.67;0.53;;;14.30;99.90;;;;;;5126083;28;20853;-45
2022/08/06 02:53:01;;;;;;;0.50;0.50;;;14.30;99.90;;;;;;5114543;28;20484;-46
2022/08/06 02:55:36;;;;;;;2.40;0.87;;;14.40;99.90;;;;;;5103303;28;20455;-46
2022/08/06 02:58:25;;;;;;;1.70;0.70;;;14.30;99.90;;;;;;5119247;28;20859;-45
2022/08/06 03:00:58;;;;;;;0.70;0.70;;;14.40;99.90;;;;;;5111195;28;20453;-46
2022/08/06 03:03:31;;;;;;;2.33;0.73;;;14.30;99.90;;;;;;5114841;29;20841;-46
2022/08/06 03:06:05;;;;;;;2.00;0.80;;;14.30;99.90;;;;;;5119741;28;20504;-46
2022/08/06 03:08:36;;;;;;;0.70;0.70;;;14.40;99.90;;;;;;5119734;28;20520;-45
2022/08/06 03:11:09;;;;;;;2.10;0.60;;;14.30;99.90;;;;;;5115998;28;20442;-46
2022/08/06 03:13:43;;;;;;;0.90;0.90;;;14.30;99.90;;;;;;5104865;28;20205;-45
2022/08/06 03:16:15;;;;;;;0.83;0.80;;;14.20;99.90;;;;;;5112992;28;20446;-47
2022/08/06 03:18:47;;;;;;;0.77;0.70;;;14.10;99.90;;;;;;5117342;28;20471;-45
2022/08/06 03:21:22;;;;;;;1.67;0.60;;;14.10;99.90;;;;;;5116424;28;20442;-46
2022/08/06 03:23:54;;;;;;;3.33;0.83;;;14.10;99.90;;;;;;5146046;28;20437;-46
2022/08/06 03:26:26;;;;;;;0.97;0.73;;;14.10;99.90;;;;;;5118966;28;20783;-46
2022/08/06 03:29:00;;;;;;;1.17;0.60;;;14.00;99.90;;;;;;5120388;28;20585;-45
2022/08/06 03:31:31;;;;;;;1.60;0.80;;;14.00;99.90;;;;;;5117928;28;20430;-46
2022/08/06 03:34:02;;;;;;;0.90;0.90;;;14.00;99.90;;;;;;5134496;28;20497;-53
2022/08/06 03:36:36;;;;;;;0.93;0.90;;;13.90;99.90;;;;;;5120722;28;20446;-46
2022/08/06 03:39:08;;;;;;;0.87;0.87;;;13.80;99.90;;;;;;5115574;28;20572;-45
2022/08/06 03:41:40;;;;;;;0.90;0.90;;;14.00;99.90;;;;;;5116459;28;20532;-47
2022/08/06 03:44:10;;;;;;;1.97;0.70;;;13.90;99.90;;;;;;5115569;28;20438;-45
2022/08/06 03:46:46;;;;;;;3.00;0.70;;;13.90;99.90;;;;;;5116284;28;20449;-45
2022/08/06 03:49:29;;;;;;;4.07;0.73;;;13.90;99.90;;;;;;5110624;28;20210;-46
2022/08/06 03:52:01;;;;;;;0.60;0.57;;;13.80;99.90;;;;;;5114083;28;20438;-46
2022/08/06 03:54:36;;;;;;;7.20;0.87;;;13.90;99.90;;;;;;5202119;28;20445;-47
2022/08/06 03:57:11;;;;;;;1.40;0.90;;;13.90;99.90;;;;;;5117707;28;20441;-46
2022/08/06 03:59:46;;;;;;;0.70;0.70;;;13.90;99.90;;;;;;5147744;28;20801;-45
2022/08/06 04:02:18;;;;;;;0.50;0.50;;;13.90;99.90;;;;;;5114879;28;20979;-46
2022/08/06 04:04:48;;;;;;;0.50;0.50;;;13.90;99.90;;;;;;5118459;28;20434;-47
2022/08/06 04:07:19;;;;;;;0.70;0.70;;;13.90;99.90;;;;;;5122026;28;20449;-46
2022/08/06 04:09:50;;;;;;;1.67;0.63;;;13.80;99.90;;;;;;5113424;28;20228;-46
2022/08/06 04:12:22;;;;;;;0.67;0.67;;;13.90;99.90;;;;;;5118267;28;20277;-46
2022/08/06 04:14:54;;;;;;;0.73;0.73;;;13.90;99.90;;;;;;5114889;28;20282;-47
2022/08/06 04:17:26;;;;;;;0.80;0.80;;;14.00;99.90;;;;;;5111072;28;20970;-45
2022/08/06 04:19:59;;;;;;;3.40;0.80;;;14.00;99.90;;;;;;5111773;28;20473;-47
2022/08/06 04:22:30;;;;;;;0.67;0.67;;;14.00;99.90;;;;;;5112771;28;20438;-46
2022/08/06 04:25:00;;;;;;;1.40;0.93;;;14.10;99.90;;;;;;5121612;29;20445;-48
2022/08/06 04:27:34;;;;;;;0.80;0.53;;;14.10;99.90;;;;;;5116717;28;20197;-45
2022/08/06 04:30:06;;;;;;;3.50;0.57;;;14.20;99.90;;;;;;5112687;28;20194;-47
2022/08/06 04:32:38;;;;;;;2.00;0.90;;;14.30;99.90;;;;;;5111425;28;20953;-48
2022/08/06 04:35:11;;;;;;;1.17;0.90;;;14.40;99.90;;;;;;5111043;28;20512;-46
2022/08/06 04:37:42;;;;;;;1.10;1.00;;;14.40;99.90;;;;;;5106333;28;20442;-46
2022/08/06 04:40:14;;;;;;;0.77;0.77;;;14.40;99.90;;;;;;5120079;29;20470;-45
2022/08/06 04:42:45;;;;;;;1.27;0.87;;;14.40;99.90;;;;;;5108439;28;20455;-47
2022/08/06 04:45:15;;;;;;;1.53;0.60;;;14.30;99.90;;;;;;5106213;28;20504;-44
2022/08/06 04:47:48;;;;;;;1.57;0.77;;;14.40;99.90;;;;;;5114306;28;20493;-48
2022/08/06 04:50:18;;;;;;;1.77;0.70;;;14.40;99.90;;;;;;5119869;29;20190;-46
2022/08/06 04:52:49;;;;;;;7.20;0.87;;;14.40;99.90;;;;;;5120257;28;20449;-46
2022/08/06 04:55:20;;;;;;;1.27;0.83;;;14.50;99.90;;;;;;5143435;28;20271;-45
2022/08/06 04:57:52;;;;;;;1.03;0.90;;;14.60;99.90;;;;;;5115373;28;20198;-49
2022/08/06 05:00:22;;;;;;;0.90;0.90;;;14.90;99.90;;;;;;5118517;28;20512;-46
2022/08/06 05:02:53;;;;;;;1.90;1.03;;;15.10;99.90;;;;;;5109595;28;20949;-49
2022/08/06 05:05:24;;;;;;;3.33;1.00;;;15.20;99.90;;;;;;5112852;28;20635;-47
2022/08/06 05:07:57;;;;;;;1.07;1.00;;;15.50;99.90;;;;;;5120135;28;20202;-48
2022/08/06 05:10:40;;;;;;;0.60;0.60;;;15.60;99.90;;;;;;5118428;28;20442;-48
2022/08/06 05:13:14;;;;;;;4.10;0.83;;;15.70;99.90;;;;;;5110787;28;20462;-47
2022/08/06 05:15:51;;;;;;;3.07;1.30;;;15.60;99.90;;;;;;5112129;28;20452;-46
2022/08/06 05:18:26;;;;;;;0.80;0.80;;;15.70;99.90;;;;;;5104688;28;20474;-47
2022/08/06 05:20:59;;;;;;;2.80;0.80;;;15.70;99.90;;;;;;5119933;28;20468;-48
2022/08/06 05:23:43;;;;;;;2.73;1.27;;;15.80;99.90;;;;;;5113736;28;21076;-48
2022/08/06 05:26:15;;;;;;;2.23;0.67;;;15.90;99.90;;;;;;5117915;28;20824;-49
2022/08/06 05:28:45;;;;;;;1.63;0.70;;;16.20;99.90;;;;;;5104332;28;20466;-48
2022/08/06 05:31:29;;;;;;;0.80;0.50;;;16.20;99.90;;;;;;5117005;28;20945;-50
2022/08/06 05:33:59;;;;;;;0.87;0.70;;;16.10;99.90;;;;;;5112846;28;20183;-48
2022/08/06 05:36:30;;;;;;;0.50;0.50;;;16.60;99.90;;;;;;5099856;28;20447;-49
2022/08/06 05:39:01;;;;;;;1.03;1.03;;;17.50;99.90;;;;;;5109018;28;20224;-50
2022/08/06 05:41:34;;;;;;;0.80;0.80;;;18.20;99.90;;;;;;5115554;28;20632;-50
2022/08/06 05:44:05;;;;;;;1.63;0.80;;;18.60;98.20;;;;;;5115629;28;20190;-49
2022/08/06 05:46:53;;;;;;;0.60;0.60;;;19.10;96.40;;;;;;5114581;28;20449;-47
2022/08/06 05:49:28;;;;;;;1.03;0.60;;;20.50;92.30;;;;;;5108209;28;20207;-49
2022/08/06 05:52:06;;;;;;;1.10;0.80;;;22.40;79.90;;;;;;5109182;28;20806;-47
2022/08/06 05:54:52;;;;;;;1.20;1.20;;;24.60;65.70;;;;;;5108738;28;20490;-48
2022/08/06 05:57:35;;;;;;;2.20;0.83;;;26.40;55.10;;;;;;5110342;28;20495;-48
2022/08/06 06:00:09;;;;;;;2.23;0.90;;;27.40;49.20;;;;;;5114324;28;20480;-47
2022/08/06 06:02:44;;;;;;;2.67;0.90;;;27.50;46.00;;;;;;5117767;28;20488;-47
2022/08/06 06:05:15;;;;;;;1.17;0.90;;;27.30;46.00;;;;;;5115355;28;20568;-46
2022/08/06 06:07:46;;;;;;;1.93;0.87;;;27.70;45.50;;;;;;5114632;28;20446;-55
2022/08/06 06:10:18;;;;;;;0.77;0.77;;;28.50;43.40;;;;;;5117414;28;20884;-48
2022/08/06 06:12:49;;;;;;;1.10;1.00;;;28.80;42.80;;;;;;5111411;28;20451;-49
2022/08/06 06:15:20;;;;;;;4.03;1.00;;;28.80;41.90;;;;;;5111177;28;20441;-49
2022/08/06 06:18:09;;;;;;;3.27;1.33;;;28.10;42.10;;;;;;5115690;28;20461;-47
2022/08/06 06:20:43;;;;;;;1.13;0.80;;;28.50;41.70;;;;;;5114861;28;20245;-47
2022/08/06 06:23:30;;;;;;;4.33;0.90;;;29.60;40.20;;;;;;5117424;28;20508;-49
2022/08/06 06:26:10;;;;;;;3.53;0.90;;;29.60;39.60;;;;;;5112476;28;21034;-47
2022/08/06 06:29:12;;;;;;;2.00;0.73;;;29.80;39.50;;;;;;5114874;28;20973;-50
2022/08/06 06:32:04;;;;;;;1.00;0.90;;;30.60;37.70;;;;;;5111870;28;20452;-45
2022/08/06 06:34:53;;;;;;;1.27;0.73;;;31.10;36.30;;;;;;5118920;28;20470;-46
2022/08/06 06:37:34;;;;;;;2.30;0.80;;;32.00;35.50;;;;;;5111204;28;20503;-47
2022/08/06 06:40:08;;;;;;;1.10;1.00;;;32.90;34.20;;;;;;5116234;28;20477;-47
2022/08/06 06:42:45;;;;;;;2.73;1.50;;;33.70;32.70;;;;;;5113897;28;20515;-47
2022/08/06 06:45:21;;;;;;;2.50;1.37;;;34.30;31.10;;;;;;5108910;28;20464;-48
2022/08/06 06:47:59;;;;;;;2.80;0.87;;;33.90;31.40;;;;;;5108379;28;20448;-48
2022/08/06 06:50:34;;;;;;;1.17;0.80;;;33.50;31.30;;;;;;5108806;28;20444;-47
2022/08/06 06:53:06;;;;;;;2.07;0.93;;;34.20;30.90;;;;;;5111045;28;20525;-49
2022/08/06 06:55:51;;;;;;;3.57;0.97;;;34.20;30.00;;;;;;5110193;28;20453;-49
2022/08/06 06:58:38;;;;;;;4.63;1.17;;;33.80;31.40;;;;;;5111734;28;20474;-47
2022/08/06 07:01:12;;;;;;;0.83;0.83;;;34.60;29.90;;;;;;5110079;28;20828;-49
2022/08/06 07:03:44;;;;;;;0.67;0.67;;;35.30;29.40;;;;;;5114799;28;20426;-49
2022/08/06 07:06:17;;;;;;;0.90;0.60;;;33.90;29.30;;;;;;5113571;28;20739;-50
2022/08/06 07:08:50;;;;;;;1.93;1.70;;;34.30;30.40;;;;;;5114636;28;20855;-47
2022/08/06 07:11:24;;;;;;;4.00;0.97;;;34.60;29.30;;;;;;5114261;28;20606;-46
2022/08/06 07:13:58;;;;;;;3.83;1.00;;;34.70;29.40;;;;;;5095042;28;20454;-45
2022/08/06 07:16:34;;;;;;;2.20;0.80;;;34.30;30.00;;;;;;5119360;28;20273;-48
2022/08/06 07:19:06;;;;;;;5.93;1.77;;;34.90;29.10;;;;;;5114287;28;20933;-46
2022/08/06 07:21:43;;;;;;;0.80;0.80;;;32.60;29.80;;;;;;5111063;28;20446;-47
2022/08/06 07:24:15;;;;;;;1.23;1.13;;;29.60;34.70;;;;;;5109826;28;20441;-47
2022/08/06 07:26:48;;;;;;;0.60;0.60;;;28.10;37.30;;;;;;5114664;28;21853;-47
2022/08/06 07:29:19;;;;;;;21.73;0.93;;;26.70;39.50;;;;;;5110569;28;20476;-46
2022/08/06 07:31:51;;;;;;;2.43;0.80;;;25.00;42.90;;;;;;5116628;28;20443;-47
2022/08/06 07:34:23;;;;;;;1.17;0.80;;;24.30;45.90;;;;;;5112458;28;20963;-47
2022/08/06 07:36:58;;;;;;;0.70;0.70;;;25.70;43.00;;;;;;5108452;28;20489;-47
2022/08/06 07:39:34;;;;;;;2.67;0.60;;;27.10;41.30;;;;;;5115510;28;20502;-47
2022/08/06 07:42:14;;;;;;;0.60;0.60;;;27.70;38.70;;;;;;5112472;28;20958;-47
2022/08/06 07:44:50;;;;;;;0.70;0.60;;;28.90;37.70;;;;;;5103534;28;20442;-48
2022/08/06 07:47:26;;;;;;;1.27;1.17;;;28.30;37.70;;;;;;5112401;28;20438;-45
2022/08/06 07:49:59;;;;;;;1.03;0.70;;;28.20;38.40;;;;;;5107308;28;20465;-47
2022/08/06 07:52:30;;;;;;;2.30;0.80;;;27.10;39.20;;;;;;5113833;28;20439;-47
2022/08/06 07:55:01;;;;;;;2.60;0.50;;;25.70;41.30;;;;;;5110390;28;20478;-49
2022/08/06 07:57:33;;;;;;;5.13;1.23;;;24.60;44.30;;;;;;5102443;28;20485;-47
2022/08/06 08:00:05;;;;;;;0.77;0.70;;;26.40;42.20;;;;;;5114614;28;20297;-48
2022/08/06 08:02:36;;;;;;;2.60;0.73;;;27.50;39.30;;;;;;5118063;28;20462;-47
2022/08/06 08:07:57;;;;;;;0.60;0.60;;;27.50;38.70;;;;;;5111710;28;20455;-48
2022/08/06 08:10:28;;;;;;;5.70;1.03;;;27.80;39.30;;;;;;5116397;28;20809;-46
2022/08/06 08:12:58;;;;;;;1.17;0.70;;;29.20;37.10;;;;;;5116638;28;20263;-49
2022/08/06 08:15:31;;;;;;;0.83;0.50;;;29.20;35.10;;;;;;5119330;29;20191;-47
2022/08/06 08:18:03;;;;;;;1.53;0.77;;;27.30;37.70;;;;;;5112881;28;20214;-47
2022/08/06 08:20:37;;;;;;;0.50;0.50;;;25.30;41.10;;;;;;5113490;28;20462;-47
2022/08/06 08:23:12;;;;;;;0.57;0.57;;;24.10;44.00;;;;;;5105524;28;20430;-46
2022/08/06 08:25:44;;;;;;;1.43;1.33;;;26.00;42.00;;;;;;5130015;28;20962;-48
2022/08/06 08:28:15;;;;;;;0.93;0.83;;;28.60;37.80;;;;;;5112352;28;20823;-49
2022/08/06 08:30:48;;;;;;;0.80;0.80;;;30.20;33.60;;;;;;5118605;28;20440;-49
2022/08/06 08:33:20;;;;;;;3.30;1.00;;;32.00;32.00;;;;;;5113449;28;20558;-49
2022/08/06 08:35:51;;;;;;;0.50;0.50;;;33.50;30.00;;;;;;5111006;28;20461;-49
2022/08/06 08:38:22;;;;;;;0.70;0.63;;;34.70;28.30;;;;;;5100043;28;20576;-48
2022/08/06 08:40:54;;;;;;;0.97;0.60;;;34.30;27.90;;;;;;5110662;28;20565;-47
2022/08/06 08:43:35;;;;;;;0.60;0.60;;;33.60;27.80;;;;;;5199167;28;20273;-46
2022/08/06 08:46:09;;;;;;;0.70;0.70;;;31.30;29.30;;;;;;5118916;28;20461;-47
2022/08/06 08:48:42;;;;;;;1.83;0.60;;;30.20;32.70;;;;;;5113430;28;20474;-47
2022/08/06 08:51:14;;;;;;;3.40;0.47;;;31.10;31.90;;;;;;5111586;28;20442;-48
2022/08/06 08:53:52;;;;;;;0.80;0.60;;;31.10;30.50;;;;;;5121013;28;20484;-48
2022/08/06 08:56:23;;;;;;;0.70;0.70;;;31.20;30.50;;;;;;5115158;28;20534;-48
2022/08/06 08:58:54;;;;;;;0.80;0.60;;;31.40;30.80;;;;;;5110774;28;20569;-49
2022/08/06 09:01:25;;;;;;;0.70;0.70;;;30.30;31.40;;;;;;5110385;28;20174;-48
2022/08/06 09:03:57;;;;;;;4.13;0.63;;;28.40;33.30;;;;;;5105621;28;20470;-49
2022/08/06 09:06:28;;;;;;;3.80;1.80;;;26.80;35.80;;;;;;5106150;28;20541;-47
2022/08/06 09:09:04;;;;;;;0.67;0.67;;;26.10;38.20;;;;;;5101894;28;20545;-48
2022/08/06 09:11:36;;;;;;;1.93;0.83;;;26.10;38.70;;;;;;5106370;28;20446;-48
2022/08/06 09:14:10;;;;;;;0.60;0.60;;;25.10;39.40;;;;;;5109473;28;20445;-46
2022/08/06 09:16:41;;;;;;;0.60;0.60;;;24.10;40.90;;;;;;5114681;28;20442;-46
2022/08/06 09:19:12;;;;;;;2.53;1.20;;;23.10;42.20;;;;;;5106155;28;21010;-48
2022/08/06 09:21:43;;;;;;;1.73;0.70;;;22.40;44.00;;;;;;5110608;28;20586;-47
2022/08/06 09:24:14;;;;;;;1.40;0.53;;;22.10;43.90;;;;;;5108890;28;20462;-49
2022/08/06 09:27:05;;;;;;;0.40;0.40;;;22.20;44.60;;;;;;5113750;28;20470;-47
2022/08/06 09:29:36;;;;;;;0.83;0.30;;;22.50;43.70;;;;;;5106512;28;20627;-46
2022/08/06 09:32:09;;;;;;;1.57;1.57;;;22.70;43.30;;;;;;5115123;28;20479;-46
2022/08/06 09:34:42;;;;;;;1.73;0.80;;;22.80;43.50;;;;;;5110089;28;20523;-46
2022/08/06 09:37:13;;;;;;;2.97;0.70;;;22.70;43.20;;;;;;5115241;28;20473;-45
2022/08/06 09:39:46;;;;;;;1.07;0.50;;;22.20;43.70;;;;;;5112184;28;20466;-45
2022/08/06 09:42:36;;;;;;;0.53;0.53;;;22.00;43.70;;;;;;5106489;29;20179;-45
2022/08/06 09:45:12;;;;;;;18.90;10.83;;;21.80;43.60;;;;;;5112756;28;20448;-45
2022/08/06 09:47:44;;;;;;;4.43;1.60;;;21.90;44.30;;;;;;5109268;28;20434;-47
2022/08/06 09:50:33;;;;;;;1.60;1.60;;;22.00;44.30;;;;;;5109203;28;20822;-47
2022/08/06 09:53:04;;;;;;;2.67;2.47;;;22.10;45.20;;;;;;5108814;28;20565;-45
2022/08/06 09:55:35;;;;;;;1.50;1.40;;;21.90;44.70;;;;;;5114732;28;20441;-51
2022/08/06 09:58:06;;;;;;;2.30;1.03;;;22.00;45.20;;;;;;5115128;28;20603;-46
2022/08/06 10:00:38;;;;;;;0.80;0.80;;;21.90;45.00;;;;;;5122289;28;20771;-46
2022/08/06 10:03:13;;;;;;;2.03;0.77;;;21.70;44.50;;;;;;5105798;28;20442;-46
2022/08/06 10:05:43;;;;;;;1.37;0.63;;;21.70;43.50;;;;;;5113021;28;20448;-50
2022/08/06 10:08:18;;;;;;;0.50;0.50;;;21.60;44.10;;;;;;5108113;28;20485;-47
2022/08/06 10:10:53;;;;;;;0.57;0.57;;;21.50;42.90;;;;;;5126206;28;20193;-47
2022/08/06 10:13:26;;;;;;;2.20;1.17;;;21.60;42.90;;;;;;5115234;28;20528;-46
2022/08/06 10:16:17;;;;;;;4.93;1.63;;;21.70;43.60;;;;;;5118142;28;20477;-46
2022/08/06 10:18:49;;;;;;;2.90;1.60;;;21.90;44.70;;;;;;5110409;28;20457;-47
2022/08/06 10:21:25;;;;;;;2.40;0.70;;;22.20;45.10;;;;;;5110472;28;20431;-48
2022/08/06 10:24:04;;;;;;;1.13;1.13;;;22.50;44.40;;;;;;5115641;29;20429;-45
2022/08/06 10:26:35;;;;;;;2.00;0.80;;;22.20;44.40;;;;;;5109097;28;20434;-46
2022/08/06 10:29:07;;;;;;;1.10;1.10;;;22.20;45.00;;;;;;5108256;28;20771;-46
2022/08/06 10:31:38;;;;;;;3.20;0.70;;;22.00;45.90;;;;;;5106690;28;20183;-46
2022/08/06 10:34:23;;;;;;;0.60;0.43;;;22.20;44.60;;;;;;5113836;28;20974;-45
2022/08/06 10:36:54;;;;;;;0.70;0.70;;;21.70;44.50;;;;;;5110532;28;20541;-45
2022/08/06 10:39:33;;;;;;;0.43;0.43;;;21.30;44.40;;;;;;5113031;28;20577;-46
2022/08/06 10:42:07;;;;;;;1.40;0.63;;;21.40;43.50;;;;;;5111258;28;20521;-45
2022/08/06 10:44:39;;;;;;;1.87;1.77;;;21.60;44.30;;;;;;5106478;28;20441;-45
2022/08/06 10:47:11;;;;;;;1.30;1.27;;;21.80;44.00;;;;;;5104062;28;20435;-48
2022/08/06 10:49:43;;;;;;;0.70;0.70;;;21.80;44.20;;;;;;5121429;28;20497;-49
2022/08/06 10:52:14;;;;;;;2.40;0.67;;;21.50;44.30;;;;;;5109466;28;20446;-47
2022/08/06 10:54:46;;;;;;;0.60;0.60;;;21.10;44.90;;;;;;5112035;28;20469;-48
2022/08/06 10:57:18;;;;;;;1.50;0.60;;;20.90;44.30;;;;;;5110134;28;20233;-49
2022/08/06 10:59:49;;;;;;;1.47;0.73;;;20.90;44.10;;;;;;5114385;28;20461;-46
2022/08/06 11:02:48;;;;;;;0.50;0.50;;;20.80;44.00;;;;;;5112645;28;20443;-47
2022/08/06 11:05:26;;;;;;;1.20;0.67;;;21.00;44.10;;;;;;5108448;28;20438;-47
2022/08/06 11:08:23;;;;;;;1.30;1.20;;;21.40;44.30;;;;;;5115042;28;20511;-47
2022/08/06 11:11:05;;;;;;;2.37;2.27;;;21.80;43.60;;;;;;5108231;28;20943;-47
2022/08/06 11:13:47;;;;;;;1.57;1.57;;;21.80;43.60;;;;;;5115547;28;20474;-46
2022/08/06 11:16:32;;;;;;;2.57;1.00;;;21.70;44.80;;;;;;5108538;28;20864;-48
2022/08/06 11:19:09;;;;;;;0.70;0.70;;;21.50;43.90;;;;;;5111235;28;20496;-49
2022/08/06 11:21:46;;;;;;;9.57;6.37;;;21.40;44.30;;;;;;5110273;28;20607;-48
2022/08/06 11:24:17;;;;;;;7.97;5.70;;;21.50;43.60;;;;;;5115873;28;20445;-48
2022/08/06 11:26:51;;;;;;;1.00;1.00;;;21.60;43.40;;;;;;5116207;28;20435;-47
2022/08/06 11:29:21;;;;;;;0.50;0.50;;;21.60;41.40;;;;;;5114698;29;20828;-49
2022/08/06 11:31:52;;;;;;;1.43;1.37;;;21.70;41.30;;;;;;5120564;28;20457;-49
2022/08/06 11:34:41;;;;;;;9.50;6.90;;;21.80;42.10;;;;;;5108406;28;20178;-49
2022/08/06 11:37:31;;;;;;;3.93;1.90;;;21.80;41.90;;;;;;5113071;28;20645;-47
2022/08/06 11:40:07;;;;;;;0.67;0.67;;;21.70;41.70;;;;;;5110652;28;20966;-47
2022/08/06 11:42:45;;;;;;;1.60;0.70;;;21.60;42.30;;;;;;5116362;28;20445;-49
2022/08/06 11:45:17;;;;;;;15.80;6.93;;;21.60;43.00;;;;;;5113604;28;20503;-52
2022/08/06 11:48:12;;;;;;;2.97;2.77;;;21.60;42.80;;;;;;5115962;28;20526;-47
2022/08/06 11:50:45;;;;;;;1.27;0.70;;;21.90;42.90;;;;;;5199246;28;20433;-49
2022/08/06 11:53:38;;;;;;;0.60;0.50;;;22.20;41.60;;;;;;5111487;28;20454;-48
2022/08/06 11:56:10;;;;;;;0.70;0.67;;;22.30;40.90;;;;;;5112879;28;20796;-49
2022/08/06 11:58:41;;;;;;;0.97;0.97;;;22.30;41.20;;;;;;5110031;28;20823;-47
2022/08/06 12:01:11;;;;;;;1.17;0.80;;;22.20;41.60;;;;;;5118409;28;20540;-48
2022/08/06 12:03:42;;;;;;;0.57;0.57;;;22.30;41.70;;;;;;5109047;28;20564;-48
2022/08/06 12:06:25;;;;;;;0.73;0.73;;;22.70;41.10;;;;;;5115379;29;20221;-50
2022/08/06 12:09:10;;;;;;;1.40;0.90;;;22.70;40.50;;;;;;5116371;28;20214;-47
2022/08/06 12:11:41;;;;;;;0.70;0.70;;;22.80;39.40;;;;;;5113085;28;20633;-48
2022/08/06 12:14:39;;;;;;;1.00;0.43;;;22.70;39.50;;;;;;5115576;28;20506;-47
2022/08/06 12:17:11;;;;;;;0.70;0.70;;;22.50;38.60;;;;;;5119115;28;20277;-47
2022/08/06 12:19:46;;;;;;;2.53;1.10;;;22.60;39.10;;;;;;5121569;28;20470;-47
2022/08/06 12:22:19;;;;;;;1.37;1.03;;;22.60;39.00;;;;;;5120982;28;20437;-46
2022/08/06 12:24:57;;;;;;;0.60;0.60;;;22.70;39.90;;;;;;5120882;29;20438;-47
2022/08/06 12:27:35;;;;;;;1.47;1.47;;;22.60;38.80;;;;;;5116752;28;20503;-48
2022/08/06 12:30:09;;;;;;;1.07;0.70;;;22.30;39.20;;;;;;5118654;28;20445;-46
2022/08/06 12:32:40;;;;;;;0.80;0.80;;;22.00;39.60;;;;;;5121597;28;20775;-46
2022/08/06 12:35:12;;;;;;;1.53;0.80;;;22.00;39.50;;;;;;5106225;29;20438;-47
2022/08/06 12:37:44;;;;;;;0.87;0.63;;;22.00;38.30;;;;;;5122073;29;20186;-46
2022/08/06 12:40:29;;;;;;;0.90;0.90;;;21.90;38.00;;;;;;5121494;29;20833;-48
2022/08/06 12:43:03;;;;;;;0.90;0.90;;;21.90;38.70;;;;;;5120917;29;20441;-45
2022/08/06 12:45:33;;;;;;;1.23;1.20;;;21.90;39.50;;;;;;5123011;28;20950;-46
2022/08/06 12:48:10;;;;;;;4.20;2.20;;;21.90;39.40;;;;;;5123684;29;20442;-50
2022/08/06 12:50:43;;;;;;;1.73;1.50;;;22.00;39.50;;;;;;5121264;28;20201;-47
2022/08/06 12:53:16;;;;;;;6.47;1.57;;;22.30;39.60;;;;;;5118153;28;20541;-45
2022/08/06 12:55:53;;;;;;;3.10;1.23;;;22.50;39.10;;;;;;5121046;28;20442;-47
2022/08/06 12:58:31;;;;;;;11.90;6.07;;;22.60;38.80;;;;;;5150796;23;20914;-49
2022/08/06 13:01:04;;;;;;;4.90;3.13;;;22.50;37.90;;;;;;5256394;28;20509;-49
2022/08/06 13:03:39;;;;;;;1.30;0.60;;;22.50;38.20;;;;;;5240033;28;20455;-48
2022/08/06 13:06:11;;;;;;;11.03;0.90;;;22.60;38.20;;;;;;5248078;28;20424;-50
2022/08/06 13:08:44;;;;;;;1.40;1.30;;;22.30;38.20;;;;;;5243333;28;20671;-50
2022/08/06 13:11:15;;;;;;;0.80;0.80;;;22.20;38.70;;;;;;5220850;28;20751;-50
2022/08/06 13:13:50;;;;;;;0.57;0.50;;;22.00;39.30;;;;;;5237172;28;20440;-53
2022/08/06 13:16:21;;;;;;;7.00;4.27;;;22.00;39.40;;;;;;5232240;28;20897;-50
2022/08/06 13:19:13;;;;;;;2.03;1.93;;;22.10;38.90;;;;;;5221395;28;20561;-48
2022/08/06 13:21:56;;;;;;;3.43;3.13;;;22.00;39.20;;;;;;5221528;28;20178;-49
2022/08/06 13:24:27;;;;;;;5.23;1.63;;;22.10;39.40;;;;;;5225573;28;20449;-49
2022/08/06 13:26:58;;;;;;;8.73;0.97;;;22.10;38.80;;;;;;5234132;28;20417;-50